Time;durP1;ratioP1;P1;durP2;ratioP2;P2;SDS_P1;SDS_P2;PMS_P1;PMS_P2;Temp;Humidity;BMP_temperature;BMP_pressure;BME280_temperature;BME280_humidity;BME280_pressure;Samples;Min_cycle;Max_cycle;Signal;HPM_P1;HPM_P2
2023/02/20 00:01:54;;;;;;;;;;;;;;;16.85;48.52;102414.94;7253138;19;153585;-56
2023/02/20 00:04:21;;;;;;;;;;;;;;;16.84;48.46;102413.22;7264152;19;155320;-56
2023/02/20 00:06:48;;;;;;;;;;;;;;;16.85;48.72;102414.94;7251565;19;153452;-56
2023/02/20 00:09:15;;;;;;;;;;;;;;;16.83;48.82;102409.59;7255343;19;153684;-56
2023/02/20 00:11:42;;;;;;;;;;;;;;;16.84;48.68;102407.66;7253424;19;154627;-56
2023/02/20 00:14:09;;;;;;;;;;;;;;;16.83;48.52;102414.31;7253743;19;153937;-56
2023/02/20 00:16:36;;;;;;;;;;;;;;;16.82;48.54;102421.00;7256640;19;153887;-56
2023/02/20 00:19:04;;;;;;;;;;;;;;;16.82;48.65;102398.66;7255303;19;154639;-56
2023/02/20 00:21:31;;;;;;;;;;;;;;;16.79;48.82;102410.31;7253521;19;153591;-56
2023/02/20 00:23:58;;;;;;;;;;;;;;;16.79;48.73;102397.22;7260049;19;153003;-56
2023/02/20 00:26:25;;;;;;;;;;;;;;;16.81;48.67;102402.53;7252747;19;154107;-56
2023/02/20 00:28:52;;;;;;;;;;;;;;;16.79;48.36;102386.06;7253968;19;154149;-56
2023/02/20 00:31:19;;;;;;;;;;;;;;;16.76;48.66;102392.13;7252865;19;153303;-56
2023/02/20 00:33:46;;;;;;;;;;;;;;;16.76;48.44;102394.09;7251302;19;152238;-56
2023/02/20 00:36:14;;;;;;;;;;;;;;;16.76;48.34;102371.75;7253700;19;152761;-56
2023/02/20 00:38:43;;;;;;;;;;;;;;;16.75;48.27;102373.69;7251708;19;155149;-56
2023/02/20 00:41:11;;;;;;;;;;;;;;;16.72;48.55;102378.91;7251768;19;154625;-56
2023/02/20 00:43:38;;;;;;;;;;;;;;;16.74;48.67;102374.78;7254445;19;153980;-56
2023/02/20 00:46:05;;;;;;;;;;;;;;;16.73;48.31;102373.09;7255479;19;154239;-56
2023/02/20 00:48:32;;;;;;;;;;;;;;;16.73;48.53;102369.44;7254105;19;152309;-56
2023/02/20 00:50:59;;;;;;;;;;;;;;;16.72;48.46;102367.75;7252567;19;155750;-56
2023/02/20 00:53:25;;;;;;;;;;;;;;;16.71;48.62;102361.34;7251140;19;153582;-56
2023/02/20 00:55:52;;;;;;;;;;;;;;;16.68;48.63;102350.66;7253059;19;153610;-56
2023/02/20 00:58:19;;;;;;;;;;;;;;;16.71;48.44;102361.34;7255876;19;154254;-56
2023/02/20 01:00:46;;;;;;;;;;;;;;;16.69;48.26;102363.53;7250084;19;155100;-56
2023/02/20 01:03:13;;;;;;;;;;;;;;;16.70;48.63;102361.59;7253053;19;151858;-56
2023/02/20 01:05:40;;;;;;;;;;;;;;;16.68;48.34;102349.81;7252778;19;152367;-56
2023/02/20 01:08:07;;;;;;;;;;;;;;;16.67;48.25;102351.75;7259672;19;154662;-56
2023/02/20 01:10:34;;;;;;;;;;;;;;;16.67;48.30;102345.34;7253707;19;154507;-56
2023/02/20 01:13:03;;;;;;;;;;;;;;;16.68;48.43;102347.00;7256614;19;153265;-56
2023/02/20 01:15:30;;;;;;;;;;;;;;;16.66;48.67;102338.91;7255664;19;153084;-56
2023/02/20 01:17:57;;;;;;;;;;;;;;;16.65;48.38;102341.94;7256578;19;153430;-55
2023/02/20 01:20:24;;;;;;;;;;;;;;;16.65;48.48;102342.78;7256667;19;152471;-55
2023/02/20 01:22:52;;;;;;;;;;;;;;;16.64;48.39;102326.28;7257363;19;153578;-55
2023/02/20 01:25:19;;;;;;;;;;;;;;;16.66;48.37;102329.69;7255963;19;152691;-55
2023/02/20 01:27:46;;;;;;;;;;;;;;;16.66;48.62;102327.75;7256097;19;153024;-55
2023/02/20 01:30:14;;;;;;;;;;;;;;;16.64;48.40;102327.13;7264699;19;153639;-55
2023/02/20 01:32:41;;;;;;;;;;;;;;;16.65;48.67;102319.63;7255541;19;154412;-56
2023/02/20 01:35:08;;;;;;;;;;;;;;;16.63;48.31;102319.00;7258672;19;154153;-56
2023/02/20 01:37:37;;;;;;;;;;;;;;;16.63;48.44;102319.84;7255838;19;154073;-56
2023/02/20 01:40:05;;;;;;;;;;;;;;;16.62;48.45;102318.19;7253529;19;153271;-56
2023/02/20 01:42:33;;;;;;;;;;;;;;;16.64;48.54;102320.72;7256423;19;152873;-56
2023/02/20 01:45:03;;;;;;;;;;;;;;;16.65;48.48;102316.81;7257394;19;153276;-56
2023/02/20 01:47:30;;;;;;;;;;;;;;;16.62;48.32;102311.75;7250410;19;153604;-56
2023/02/20 01:50:02;;;;;;;;;;;;;;;16.63;48.59;102310.63;7256603;19;154026;-56
2023/02/20 01:52:30;;;;;;;;;;;;;;;16.63;48.51;102305.06;7260172;19;154106;-56
2023/02/20 01:55:00;;;;;;;;;;;;;;;16.62;48.40;102307.03;7254454;19;152980;-56
2023/02/20 01:57:29;;;;;;;;;;;;;;;16.63;48.49;102313.44;7260458;19;154024;-56
2023/02/20 01:59:59;;;;;;;;;;;;;;;16.62;48.39;102308.97;7262485;19;153439;-56
2023/02/20 02:02:29;;;;;;;;;;;;;;;16.63;48.33;102296.69;7262658;19;154444;-56
2023/02/20 02:04:56;;;;;;;;;;;;;;;16.63;48.33;102291.94;7264897;19;152633;-56
2023/02/20 02:07:23;;;;;;;;;;;;;;;16.62;48.37;102295.88;7256142;19;153891;-56
2023/02/20 02:09:53;;;;;;;;;;;;;;;16.60;48.42;102299.97;7261706;19;154422;-56
2023/02/20 02:12:21;;;;;;;;;;;;;;;16.61;48.46;102302.53;7259961;19;153046;-56
2023/02/20 02:14:48;;;;;;;;;;;;;;;16.58;48.49;102300.22;7269116;19;153830;-56
2023/02/20 02:17:19;;;;;;;;;;;;;;;16.57;48.33;102306.88;7261865;19;153791;-56
2023/02/20 02:19:49;;;;;;;;;;;;;;;16.57;48.51;102289.28;7261635;19;153665;-56
2023/02/20 02:22:29;;;;;;;;;;;;;;;16.56;48.55;102291.25;7262804;19;153552;-55
2023/02/20 02:25:00;;;;;;;;;;;;;;;16.56;48.49;102285.66;7262021;19;154188;-56
2023/02/20 02:27:27;;;;;;;;;;;;;;;16.56;48.76;102291.25;7258901;19;153529;-56
2023/02/20 02:29:57;;;;;;;;;;;;;;;16.57;48.50;102287.34;7266187;19;152111;-56
2023/02/20 02:32:26;;;;;;;;;;;;;;;16.57;48.44;102281.78;7264324;19;153389;-56
2023/02/20 02:35:03;;;;;;;;;;;;;;;16.54;48.71;102270.25;7265527;19;153043;-56
2023/02/20 02:37:33;;;;;;;;;;;;;;;16.55;48.78;102283.97;7258398;19;151998;-56
2023/02/20 02:40:03;;;;;;;;;;;;;;;16.55;48.63;102274.72;7262409;19;153731;-56
2023/02/20 02:42:33;;;;;;;;;;;;;;;16.53;48.86;102268.56;7259680;19;155122;-56
2023/02/20 02:45:02;;;;;;;;;;;;;;;16.56;48.52;102268.06;7258559;19;152825;-56
2023/02/20 02:47:34;;;;;;;;;;;;;;;16.57;48.64;102266.97;7253861;19;153099;-56
2023/02/20 02:50:04;;;;;;;;;;;;;;;16.52;48.52;102259.34;7258553;19;154236;-56
2023/02/20 02:55:01;;;;;;;;;;;;;;;16.54;48.91;102261.88;7255841;19;153047;-56
2023/02/20 02:57:29;;;;;;;;;;;;;;;16.53;48.62;102260.22;7263709;19;154978;-56
2023/02/20 02:59:59;;;;;;;;;;;;;;;16.50;48.79;102264.31;7255805;19;153098;-56
2023/02/20 03:02:30;;;;;;;;;;;;;;;16.50;48.65;102257.91;7256334;19;153565;-56
2023/02/20 03:04:58;;;;;;;;;;;;;;;16.49;48.94;102253.44;7258590;19;152853;-56
2023/02/20 03:07:25;;;;;;;;;;;;;;;16.51;48.64;102254.00;7250399;19;154082;-56
2023/02/20 03:09:57;;;;;;;;;;;;;;;16.50;48.80;102260.69;7256259;19;153116;-56
2023/02/20 03:12:25;;;;;;;;;;;;;;;16.49;48.55;102253.44;7254466;19;151922;-56
2023/02/20 03:17:30;;;;;;;;;;;;;;;16.48;48.71;102258.16;7254709;19;152457;-56
2023/02/20 03:19:59;;;;;;;;;;;;;;;16.46;49.03;102252.81;7259559;19;158005;-56
2023/02/20 03:22:29;;;;;;;;;;;;;;;16.46;48.95;102244.47;7255903;19;153694;-56
2023/02/20 03:25:00;;;;;;;;;;;;;;;16.48;48.98;102248.94;7256921;19;153469;-56
2023/02/20 03:27:27;;;;;;;;;;;;;;;16.45;49.09;102250.28;7253640;19;153441;-56
2023/02/20 03:29:57;;;;;;;;;;;;;;;16.45;48.87;102250.28;7250789;19;153424;-56
2023/02/20 03:45:03;;;;;;;;;;;;;;;16.43;49.15;102266.44;7255957;19;156506;-56
2023/02/20 03:47:32;;;;;;;;;;;;;;;16.44;49.04;102266.16;7251793;19;155919;-56
2023/02/20 03:50:05;;;;;;;;;;;;;;;16.46;48.69;102257.56;7257083;19;152957;-56
2023/02/20 03:52:32;;;;;;;;;;;;;;;16.43;48.78;102252.47;7253985;19;154068;-56
2023/02/20 03:54:59;;;;;;;;;;;;;;;16.44;48.83;102255.00;7253037;19;155662;-56
2023/02/20 03:57:29;;;;;;;;;;;;;;;16.43;49.07;102253.34;7254641;19;154174;-56
2023/02/20 04:00:01;;;;;;;;;;;;;;;16.43;49.18;102252.47;7254150;19;152501;-56
2023/02/20 04:02:30;;;;;;;;;;;;;;;16.44;49.26;102254.19;7252177;19;153378;-56
2023/02/20 04:04:59;;;;;;;;;;;;;;;16.44;48.75;102249.44;7262566;19;154486;-56
2023/02/20 04:07:29;;;;;;;;;;;;;;;16.42;49.01;102248.84;7249748;19;154753;-56
2023/02/20 04:09:59;;;;;;;;;;;;;;;16.41;49.22;102252.72;7255525;19;153825;-56
2023/02/20 04:12:28;;;;;;;;;;;;;;;16.42;49.00;102254.41;7251940;19;152040;-56
2023/02/20 04:14:57;;;;;;;;;;;;;;;16.40;49.00;102256.59;7253741;19;155626;-55
2023/02/20 04:17:26;;;;;;;;;;;;;;;16.40;49.00;102259.38;7250288;19;154144;-55
2023/02/20 04:19:52;;;;;;;;;;;;;;;16.40;48.85;102262.19;7253791;19;154086;-55
2023/02/20 04:22:23;;;;;;;;;;;;;;;16.41;49.18;102263.03;7250745;19;152745;-56
2023/02/20 04:24:54;;;;;;;;;;;;;;;16.41;49.09;102261.09;7260895;19;153688;-56
2023/02/20 04:27:21;;;;;;;;;;;;;;;16.42;49.06;102262.78;7252718;19;155012;-56
2023/02/20 04:29:48;;;;;;;;;;;;;;;16.42;49.16;102260.00;7255305;19;153557;-56
2023/02/20 04:32:17;;;;;;;;;;;;;;;16.40;49.17;102256.59;7253488;19;154519;-56
2023/02/20 04:34:45;;;;;;;;;;;;;;;16.42;49.12;102248.84;7254215;19;153206;-56
2023/02/20 04:37:13;;;;;;;;;;;;;;;16.40;49.10;102259.38;7254602;19;153676;-57
2023/02/20 04:39:39;;;;;;;;;;;;;;;16.40;49.27;102267.75;7253171;19;153633;-56
2023/02/20 04:42:06;;;;;;;;;;;;;;;16.42;49.12;102260.00;7251767;19;154299;-56
2023/02/20 04:44:34;;;;;;;;;;;;;;;16.40;49.03;102256.59;7252509;19;155796;-56
2023/02/20 04:47:02;;;;;;;;;;;;;;;16.39;49.22;102262.44;7259085;19;153563;-56
2023/02/20 04:49:29;;;;;;;;;;;;;;;16.39;49.11;102263.28;7253907;19;153330;-56
2023/02/20 04:51:56;;;;;;;;;;;;;;;16.38;49.28;102269.97;7251588;19;153382;-56
2023/02/20 04:54:23;;;;;;;;;;;;;;;16.37;49.40;102262.69;7249955;19;152741;-56
2023/02/20 04:56:52;;;;;;;;;;;;;;;16.38;49.06;102263.53;7252551;19;153891;-56
2023/02/20 04:59:19;;;;;;;;;;;;;;;16.38;49.08;102280.28;7250980;19;153858;-56
2023/02/20 05:01:48;;;;;;;;;;;;;;;16.40;49.09;102270.53;7252997;19;155179;-56
2023/02/20 05:04:15;;;;;;;;;;;;;;;16.38;49.11;102271.91;7252934;19;153583;-56
2023/02/20 05:06:43;;;;;;;;;;;;;;;16.36;49.20;102274.06;7252771;19;154361;-56
2023/02/20 05:09:10;;;;;;;;;;;;;;;16.37;49.56;102278.56;7257779;19;155202;-56
2023/02/20 05:11:37;;;;;;;;;;;;;;;16.36;49.40;102277.72;7251548;19;154231;-56
2023/02/20 05:14:04;;;;;;;;;;;;;;;16.36;49.29;102266.56;7248027;19;156071;-56
2023/02/20 05:16:31;;;;;;;;;;;;;;;16.37;49.45;102273.84;7251000;19;152569;-56
2023/02/20 05:18:59;;;;;;;;;;;;;;;16.40;49.24;102272.47;7251272;19;153252;-56
2023/02/20 05:23:56;;;;;;;;;;;;;;;16.36;49.32;102274.94;7250541;19;153644;-56
2023/02/20 05:26:23;;;;;;;;;;;;;;;16.36;49.29;102274.94;7252876;19;152322;-56
2023/02/20 05:28:50;;;;;;;;;;;;;;;16.35;49.28;102272.41;7248283;19;152243;-56
2023/02/20 05:31:16;;;;;;;;;;;;;;;16.33;49.53;102275.44;7258176;19;153194;-56
2023/02/20 05:33:43;;;;;;;;;;;;;;;16.35;49.50;102278.00;7251765;19;156525;-56
2023/02/20 05:36:12;;;;;;;;;;;;;;;16.34;49.38;102281.88;7252328;19;152363;-56
2023/02/20 05:38:40;;;;;;;;;;;;;;;16.34;49.54;102279.94;7248782;19;154611;-56
2023/02/20 05:41:07;;;;;;;;;;;;;;;16.35;49.49;102280.78;7249539;19;153202;-56
2023/02/20 05:43:34;;;;;;;;;;;;;;;16.34;49.69;102281.88;7252271;19;153252;-56
2023/02/20 05:46:01;;;;;;;;;;;;;;;16.34;49.38;102279.06;7251291;19;152647;-55
2023/02/20 05:48:27;;;;;;;;;;;;;;;16.32;49.72;102279.31;7247072;19;154371;-56
2023/02/20 05:50:54;;;;;;;;;;;;;;;16.33;49.51;102285.75;7251687;19;153223;-56
2023/02/20 05:53:25;;;;;;;;;;;;;;;16.34;49.85;102282.72;7256588;19;154482;-55
2023/02/20 05:55:54;;;;;;;;;;;;;;;16.33;49.58;102269.00;7252136;19;153057;-55
2023/02/20 05:58:22;;;;;;;;;;;;;;;16.33;49.94;102272.66;7252630;19;154163;-55
2023/02/20 06:00:48;;;;;;;;;;;;;;;16.32;49.51;102265.38;7248926;19;153666;-56
2023/02/20 06:03:16;;;;;;;;;;;;;;;16.32;49.70;102265.38;7251278;19;153543;-56
2023/02/20 06:05:43;;;;;;;;;;;;;;;16.33;49.94;102269.84;7252521;19;153926;-56
2023/02/20 06:08:09;;;;;;;;;;;;;;;16.33;49.70;102264.28;7247460;19;157509;-55
2023/02/20 06:10:38;;;;;;;;;;;;;;;16.34;49.95;102265.13;7253368;19;153686;-55
2023/02/20 06:13:05;;;;;;;;;;;;;;;16.34;49.49;102270.72;7252758;19;153517;-55
2023/02/20 06:15:32;;;;;;;;;;;;;;;16.33;49.76;102260.63;7257405;19;153871;-55
2023/02/20 06:17:58;;;;;;;;;;;;;;;16.32;49.70;102257.00;7252792;19;153857;-55
2023/02/20 06:20:25;;;;;;;;;;;;;;;16.32;49.63;102262.56;7249919;19;156858;-55
2023/02/20 06:22:52;;;;;;;;;;;;;;;16.33;49.66;102269.84;7249615;19;154318;-56
2023/02/20 06:25:19;;;;;;;;;;;;;;;16.31;50.07;102272.03;7250632;19;154021;-55
2023/02/20 06:27:45;;;;;;;;;;;;;;;16.34;49.71;102262.34;7248583;19;153258;-56
2023/02/20 06:30:13;;;;;;;;;;;;;;;16.31;50.07;102269.25;7250682;19;153711;-55
2023/02/20 06:32:40;;;;;;;;;;;;;;;16.32;49.68;102270.09;7249568;19;154015;-56
2023/02/20 06:35:07;;;;;;;;;;;;;;;16.30;49.92;102264.78;7258597;19;154357;-56
2023/02/20 06:37:34;;;;;;;;;;;;;;;16.31;49.81;102266.47;7249389;19;153020;-56
2023/02/20 06:40:02;;;;;;;;;;;;;;;16.31;50.14;102255.31;7248250;19;154176;-56
2023/02/20 06:42:28;;;;;;;;;;;;;;;16.31;50.00;102258.09;7252154;19;154501;-56
2023/02/20 06:44:55;;;;;;;;;;;;;;;16.32;50.14;102250.56;7258197;19;152960;-56
2023/02/20 06:47:22;;;;;;;;;;;;;;;16.33;49.97;102246.69;7257007;19;154199;-56
2023/02/20 06:49:49;;;;;;;;;;;;;;;16.34;49.87;102260.41;7256233;19;154167;-56
2023/02/20 06:52:16;;;;;;;;;;;;;;;16.33;49.98;102257.84;7256767;19;152980;-56
2023/02/20 06:54:42;;;;;;;;;;;;;;;16.33;49.95;102250.34;7256996;19;154390;-56
2023/02/20 06:57:09;;;;;;;;;;;;;;;16.34;49.70;102237.25;7264455;19;153922;-56
2023/02/20 06:59:40;;;;;;;;;;;;;;;16.34;49.94;102243.66;7254757;19;156039;-56
2023/02/20 07:02:10;;;;;;;;;;;;;;;16.32;49.83;102242.22;7256833;19;154472;-56
2023/02/20 07:04:36;;;;;;;;;;;;;;;16.32;50.14;102243.06;7258277;19;153319;-56
2023/02/20 07:07:03;;;;;;;;;;;;;;;16.33;50.12;102247.53;7253673;19;154627;-56
2023/02/20 07:09:30;;;;;;;;;;;;;;;16.34;49.88;102240.03;7252123;19;152322;-56
2023/02/20 07:11:57;;;;;;;;;;;;;;;16.31;49.93;102233.00;7254744;19;153482;-56
2023/02/20 07:14:24;;;;;;;;;;;;;;;16.31;49.79;102240.50;7251882;19;153038;-56
2023/02/20 07:16:51;;;;;;;;;;;;;;;16.32;49.77;102239.41;7256063;19;154256;-55
2023/02/20 07:19:17;;;;;;;;;;;;;;;16.30;50.02;102220.16;7262099;19;153720;-55
2023/02/20 07:21:45;;;;;;;;;;;;;;;16.30;50.21;102225.75;7255417;19;152815;-57
2023/02/20 07:24:12;;;;;;;;;;;;;;;16.31;50.20;102226.56;7253497;19;152969;-56
2023/02/20 07:26:39;;;;;;;;;;;;;;;16.30;49.92;102224.91;7254685;19;152670;-55
2023/02/20 07:29:06;;;;;;;;;;;;;;;16.31;49.97;102230.19;7253935;19;153511;-56
2023/02/20 07:31:35;;;;;;;;;;;;;;;16.31;50.09;102221.84;7253920;19;154505;-57
2023/02/20 07:34:02;;;;;;;;;;;;;;;16.31;50.02;102226.56;7256492;19;153313;-56
2023/02/20 07:36:29;;;;;;;;;;;;;;;16.30;50.24;102233.25;7254087;19;152805;-56
2023/02/20 07:38:57;;;;;;;;;;;;;;;16.28;49.99;102232.66;7252777;19;152717;-56
2023/02/20 07:41:25;;;;;;;;;;;;;;;16.28;50.04;102232.66;7260566;19;153114;-56
2023/02/20 07:43:52;;;;;;;;;;;;;;;16.28;50.13;102227.06;7255698;19;154117;-56
2023/02/20 07:46:21;;;;;;;;;;;;;;;16.29;50.40;102228.78;7253503;19;154198;-56
2023/02/20 07:48:48;;;;;;;;;;;;;;;16.29;49.91;102226.84;7257432;19;153238;-56
2023/02/20 07:51:15;;;;;;;;;;;;;;;16.29;50.34;102225.97;7256586;19;154053;-56
2023/02/20 07:53:45;;;;;;;;;;;;;;;16.26;50.32;102213.38;7250359;19;154735;-56
2023/02/20 07:56:12;;;;;;;;;;;;;;;16.28;50.34;102229.84;7257057;19;152752;-56
2023/02/20 07:58:40;;;;;;;;;;;;;;;16.28;50.32;102239.06;7257030;19;153525;-56
2023/02/20 08:01:06;;;;;;;;;;;;;;;16.30;50.09;102250.00;7255209;19;154026;-56
2023/02/20 08:03:33;;;;;;;;;;;;;;;16.28;50.33;102239.06;7265581;19;152559;-56
2023/02/20 08:06:00;;;;;;;;;;;;;;;16.30;50.09;102241.63;7254822;19;152706;-56
2023/02/20 08:08:27;;;;;;;;;;;;;;;16.26;50.58;102246.00;7254329;19;154830;-56
2023/02/20 08:10:54;;;;;;;;;;;;;;;16.26;50.53;102246.81;7256100;19;154245;-56
2023/02/20 08:13:33;;;;;;;;;;;;;;;16.27;50.40;102250.47;7252185;19;152158;-56
2023/02/20 08:16:00;;;;;;;;;;;;;;;16.27;50.41;102251.31;7252701;19;153394;-56
2023/02/20 08:18:27;;;;;;;;;;;;;;;16.27;50.25;102244.88;7255854;19;154971;-55
2023/02/20 08:20:54;;;;;;;;;;;;;;;16.27;50.45;102248.53;7254594;19;154775;-56
2023/02/20 08:23:23;;;;;;;;;;;;;;;16.24;50.69;102254.63;7255761;19;154519;-56
2023/02/20 08:25:50;;;;;;;;;;;;;;;16.26;50.43;102265.53;7261251;19;154807;-55
2023/02/20 08:28:18;;;;;;;;;;;;;;;16.24;50.69;102265.75;7256013;19;153237;-55
2023/02/20 08:30:45;;;;;;;;;;;;;;;16.24;50.48;102260.19;7253428;19;152728;-55
2023/02/20 08:33:12;;;;;;;;;;;;;;;16.26;50.19;102274.72;7253311;19;153499;-56
2023/02/20 08:35:39;;;;;;;;;;;;;;;16.25;50.33;102269.41;7257267;19;153959;-56
2023/02/20 08:38:20;;;;;;;;;;;;;;;16.25;50.38;102273.03;7253330;19;153229;-56
2023/02/20 08:40:47;;;;;;;;;;;;;;;16.27;50.36;102279.19;7258097;19;154918;-56
2023/02/20 08:43:14;;;;;;;;;;;;;;;16.24;50.22;102276.91;7255822;19;154068;-56
2023/02/20 08:45:41;;;;;;;;;;;;;;;16.27;50.28;102273.63;7262766;19;153560;-56
2023/02/20 08:48:08;;;;;;;;;;;;;;;16.27;50.34;102289.50;7254372;19;152317;-56
2023/02/20 08:50:35;;;;;;;;;;;;;;;16.25;50.45;102281.41;7256155;19;153997;-56
2023/02/20 08:53:02;;;;;;;;;;;;;;;16.25;50.26;102284.19;7251430;19;154019;-56
2023/02/20 08:55:29;;;;;;;;;;;;;;;16.28;50.46;102288.41;7256581;19;154049;-56
2023/02/20 08:57:56;;;;;;;;;;;;;;;16.25;50.29;102289.78;7251916;19;153440;-56
2023/02/20 09:00:23;;;;;;;;;;;;;;;16.26;50.66;102276.69;7252592;19;154298;-56
2023/02/20 09:02:50;;;;;;;;;;;;;;;16.25;50.67;102278.63;7252623;19;155627;-56
2023/02/20 09:05:17;;;;;;;;;;;;;;;16.25;50.44;102273.03;7255861;19;152620;-56
2023/02/20 09:07:44;;;;;;;;;;;;;;;16.25;50.56;102270.25;7259909;19;153743;-56
2023/02/20 09:10:11;;;;;;;;;;;;;;;16.25;50.42;102274.97;7254948;19;153864;-56
2023/02/20 09:12:40;;;;;;;;;;;;;;;16.26;50.73;102282.25;7252532;19;154016;-56
2023/02/20 09:15:09;;;;;;;;;;;;;;;16.25;50.46;102275.84;7257280;19;154043;-56
2023/02/20 09:17:36;;;;;;;;;;;;;;;16.24;50.95;102268.56;7253609;19;154744;-56
2023/02/20 09:20:08;;;;;;;;;;;;;;;16.26;50.54;102271.09;7253807;19;153252;-56
2023/02/20 09:22:35;;;;;;;;;;;;;;;16.26;50.96;102262.75;7251028;19;153298;-56
2023/02/20 09:25:04;;;;;;;;;;;;;;;16.22;50.61;102264.31;7251640;19;154005;-56
2023/02/20 09:27:31;;;;;;;;;;;;;;;16.22;50.88;102264.31;7250066;19;154558;-56
2023/02/20 09:29:58;;;;;;;;;;;;;;;16.25;50.83;102274.97;7257315;19;154208;-56
2023/02/20 09:32:25;;;;;;;;;;;;;;;16.24;50.75;102265.75;7249122;19;152766;-56
2023/02/20 09:34:52;;;;;;;;;;;;;;;16.22;50.67;102255.94;7254756;19;153058;-56
2023/02/20 09:37:19;;;;;;;;;;;;;;;16.24;50.73;102262.13;7252480;19;153507;-56
2023/02/20 09:39:46;;;;;;;;;;;;;;;16.24;50.88;102264.91;7256855;19;154200;-56
2023/02/20 09:42:13;;;;;;;;;;;;;;;16.22;50.79;102253.16;7254483;19;154391;-56
2023/02/20 09:44:40;;;;;;;;;;;;;;;16.22;51.03;102273.50;7251494;19;154503;-56
2023/02/20 09:47:19;;;;;;;;;;;;;;;16.23;50.73;102255.69;7252221;19;153727;-56
2023/02/20 09:49:46;;;;;;;;;;;;;;;16.22;50.97;102256.78;7251961;19;154455;-56
2023/02/20 09:52:15;;;;;;;;;;;;;;;16.23;50.83;102258.50;7256651;19;154169;-56
2023/02/20 09:54:46;;;;;;;;;;;;;;;16.25;50.80;102250.72;7253616;19;153590;-56
2023/02/20 09:57:16;;;;;;;;;;;;;;;16.25;50.76;102267.47;7254701;19;154119;-56
2023/02/20 09:59:46;;;;;;;;;;;;;;;16.23;50.90;102258.50;7252118;19;155094;-56
2023/02/20 10:02:16;;;;;;;;;;;;;;;16.23;50.78;102252.91;7252378;19;154732;-56
2023/02/20 10:04:46;;;;;;;;;;;;;;;16.23;50.94;102260.44;7252547;19;153513;-56
2023/02/20 10:07:27;;;;;;;;;;;;;;;16.23;50.81;102263.22;7251626;19;154026;-56
2023/02/20 10:09:55;;;;;;;;;;;;;;;16.24;50.79;102248.19;7253210;19;153074;-56
2023/02/20 10:12:25;;;;;;;;;;;;;;;16.23;51.09;102252.06;7250678;19;153652;-56
2023/02/20 10:14:59;;;;;;;;;;;;;;;16.23;50.95;102240.91;7260344;19;154322;-56
2023/02/20 10:17:29;;;;;;;;;;;;;;;16.24;51.12;102246.25;7255405;19;153800;-56
2023/02/20 10:19:59;;;;;;;;;;;;;;;16.24;50.95;102248.19;7259695;19;154192;-56
2023/02/20 10:22:29;;;;;;;;;;;;;;;16.26;51.07;102254.38;7255024;19;154466;-56
2023/02/20 10:24:59;;;;;;;;;;;;;;;16.24;50.95;102259.34;7259902;19;152303;-56
2023/02/20 10:27:30;;;;;;;;;;;;;;;16.24;51.24;102249.03;7257248;19;152182;-56
2023/02/20 10:29:58;;;;;;;;;;;;;;;16.24;50.87;102253.75;7255144;19;153905;-56
2023/02/20 10:32:28;;;;;;;;;;;;;;;16.24;50.96;102242.59;7260021;19;152372;-56
2023/02/20 10:34:58;;;;;;;;;;;;;;;16.24;51.16;102239.81;7258417;19;154871;-56
2023/02/20 10:37:28;;;;;;;;;;;;;;;16.24;51.08;102237.88;7268842;19;152761;-56
2023/02/20 10:40:17;;;;;;;;;;;;;;;16.25;51.05;102242.38;7258948;19;153668;-56
2023/02/20 10:42:50;;;;;;;;;;;;;;;16.26;51.29;102243.22;7258062;19;154075;-56
2023/02/20 10:45:20;;;;;;;;;;;;;;;16.27;51.05;102244.88;7258219;19;153590;-56
2023/02/20 10:47:51;;;;;;;;;;;;;;;16.23;51.16;102250.13;7259594;19;153584;-56
2023/02/20 10:50:23;;;;;;;;;;;;;;;16.26;51.10;102240.44;7259502;19;153334;-56
2023/02/20 10:52:53;;;;;;;;;;;;;;;16.26;50.91;102221.72;7259913;19;154756;-56
2023/02/20 10:55:25;;;;;;;;;;;;;;;16.25;50.97;102231.22;7257136;19;154668;-56
2023/02/20 10:57:55;;;;;;;;;;;;;;;16.26;51.20;102229.28;7267135;19;154380;-56
2023/02/20 11:00:26;;;;;;;;;;;;;;;16.24;51.24;102232.31;7258738;19;154631;-56
2023/02/20 11:02:56;;;;;;;;;;;;;;;16.25;51.23;102234.00;7258218;19;155134;-56
2023/02/20 11:05:25;;;;;;;;;;;;;;;16.25;51.05;102216.41;7259111;19;154448;-56
2023/02/20 11:07:52;;;;;;;;;;;;;;;16.29;51.02;102223.19;7254927;19;153884;-56
2023/02/20 11:10:19;;;;;;;;;;;;;;;16.28;51.09;102216.75;7257236;19;154384;-56
2023/02/20 11:12:48;;;;;;;;;;;;;;;16.29;51.05;102214.81;7261348;19;153054;-56
2023/02/20 11:15:18;;;;;;;;;;;;;;;16.26;51.42;102218.94;7258656;19;153838;-56
2023/02/20 11:17:47;;;;;;;;;;;;;;;16.26;51.52;102207.78;7260099;19;152998;-56
2023/02/20 11:20:17;;;;;;;;;;;;;;;16.26;51.11;102204.19;7265714;19;153673;-56
2023/02/20 11:22:45;;;;;;;;;;;;;;;16.27;51.16;102200.28;7255988;19;153986;-56
2023/02/20 11:25:14;;;;;;;;;;;;;;;16.27;51.18;102198.34;7257256;19;152870;-56
2023/02/20 11:27:41;;;;;;;;;;;;;;;16.27;51.13;102186.34;7258204;19;155801;-56
2023/02/20 11:30:11;;;;;;;;;;;;;;;16.28;51.53;102182.44;7253880;19;155120;-56
2023/02/20 11:32:38;;;;;;;;;;;;;;;16.28;51.22;102183.31;7259072;19;153646;-56
2023/02/20 11:35:08;;;;;;;;;;;;;;;16.29;51.50;102189.72;7255803;19;153733;-56
2023/02/20 11:37:35;;;;;;;;;;;;;;;16.30;51.47;102191.44;7259284;19;153675;-56
2023/02/20 11:40:25;;;;;;;;;;;;;;;16.31;51.08;102196.75;7259764;19;153368;-56
2023/02/20 11:42:53;;;;;;;;;;;;;;;16.28;51.50;102197.25;7265583;19;153243;-56
2023/02/20 11:45:23;;;;;;;;;;;;;;;16.31;51.31;102188.38;7260904;19;154037;-56
2023/02/20 11:47:53;;;;;;;;;;;;;;;16.31;51.59;102199.53;7259976;19;154321;-56
2023/02/20 11:50:20;;;;;;;;;;;;;;;16.31;51.19;102193.94;7256694;19;153585;-56
2023/02/20 11:52:50;;;;;;;;;;;;;;;16.33;51.29;102182.56;7255712;19;153860;-56
2023/02/20 11:55:20;;;;;;;;;;;;;;;16.32;51.50;102181.69;7257226;19;155097;-56
2023/02/20 11:57:47;;;;;;;;;;;;;;;16.33;51.20;102171.41;7256471;19;155005;-56
2023/02/20 12:00:16;;;;;;;;;;;;;;;16.36;51.14;102184.84;7259699;19;154232;-56
2023/02/20 12:02:46;;;;;;;;;;;;;;;16.37;51.20;102173.44;7258760;19;154174;-56
2023/02/20 12:05:13;;;;;;;;;;;;;;;16.37;51.24;102187.38;7263107;19;153852;-56
2023/02/20 12:07:43;;;;;;;;;;;;;;;16.39;51.34;102184.34;7254631;19;153761;-56
2023/02/20 12:10:13;;;;;;;;;;;;;;;16.40;51.04;102175.72;7252760;19;153717;-56
2023/02/20 12:12:40;;;;;;;;;;;;;;;16.42;51.13;102173.53;7252723;19;152324;-56
2023/02/20 12:15:10;;;;;;;;;;;;;;;16.43;51.15;102180.81;7253889;19;153232;-56
2023/02/20 12:17:47;;;;;;;;;;;;;;;16.41;51.33;102177.41;7255168;19;153241;-56
2023/02/20 12:20:16;;;;;;;;;;;;;;;16.42;51.14;102169.91;7256375;19;154019;-56
2023/02/20 12:22:46;;;;;;;;;;;;;;;16.42;50.97;102173.53;7254619;19;154576;-56
2023/02/20 12:25:16;;;;;;;;;;;;;;;16.46;50.93;102159.94;7256660;19;152392;-56
2023/02/20 12:27:49;;;;;;;;;;;;;;;16.43;51.34;102158.50;7263813;19;154513;-56
2023/02/20 12:30:19;;;;;;;;;;;;;;;16.43;51.37;102154.84;7255132;19;153579;-56
2023/02/20 12:32:49;;;;;;;;;;;;;;;16.44;51.01;102156.56;7254477;19;153731;-56
2023/02/20 12:35:19;;;;;;;;;;;;;;;16.44;51.40;102143.44;7256413;19;155497;-56
2023/02/20 12:37:54;;;;;;;;;;;;;;;16.43;51.36;102141.75;7252808;19;154234;-56
2023/02/20 12:40:31;;;;;;;;;;;;;;;16.44;51.07;102139.81;7253059;19;153455;-56
2023/02/20 12:43:01;;;;;;;;;;;;;;;16.44;51.35;102145.41;7252655;19;153365;-56
2023/02/20 12:45:31;;;;;;;;;;;;;;;16.42;51.20;102145.63;7256334;19;153207;-56
2023/02/20 12:48:01;;;;;;;;;;;;;;;16.41;51.55;102130.00;7258094;19;153814;-55
2023/02/20 12:50:38;;;;;;;;;;;;;;;16.43;51.16;102122.25;7263229;19;153794;-55
2023/02/20 12:53:08;;;;;;;;;;;;;;;16.45;51.24;102136.75;7255467;19;153362;-55
2023/02/20 12:55:43;;;;;;;;;;;;;;;16.44;51.37;102123.91;7255310;19;153217;-55